sensor_id;sensor_type;location;lat;lon;timestamp;temperature;humidity
2763;DHT22;1389;51.490;7.338;2023-02-17T00:00:07;9.70;98.60
2763;DHT22;1389;51.490;7.338;2023-02-17T00:02:35;9.70;98.70
2763;DHT22;1389;51.490;7.338;2023-02-17T00:05:01;9.70;98.70
2763;DHT22;1389;51.490;7.338;2023-02-17T00:07:27;9.70;98.70
2763;DHT22;1389;51.490;7.338;2023-02-17T00:09:58;9.70;98.80
2763;DHT22;1389;51.490;7.338;2023-02-17T00:12:25;9.70;98.70
2763;DHT22;1389;51.490;7.338;2023-02-17T00:14:51;9.70;98.70
2763;DHT22;1389;51.490;7.338;2023-02-17T00:17:17;9.80;98.60
2763;DHT22;1389;51.490;7.338;2023-02-17T00:19:43;9.80;98.60
2763;DHT22;1389;51.490;7.338;2023-02-17T00:22:09;9.80;98.60
2763;DHT22;1389;51.490;7.338;2023-02-17T00:24:38;9.90;98.40
2763;DHT22;1389;51.490;7.338;2023-02-17T00:27:05;9.80;98.40
2763;DHT22;1389;51.490;7.338;2023-02-17T00:29:32;9.90;98.30
2763;DHT22;1389;51.490;7.338;2023-02-17T00:31:58;9.90;98.40
2763;DHT22;1389;51.490;7.338;2023-02-17T00:34:24;9.90;98.30
2763;DHT22;1389;51.490;7.338;2023-02-17T00:36:52;9.90;98.40
2763;DHT22;1389;51.490;7.338;2023-02-17T00:39:19;10.00;98.30
2763;DHT22;1389;51.490;7.338;2023-02-17T00:41:45;10.00;98.20
2763;DHT22;1389;51.490;7.338;2023-02-17T00:44:19;10.00;98.10
2763;DHT22;1389;51.490;7.338;2023-02-17T00:46:46;10.00;98.20
2763;DHT22;1389;51.490;7.338;2023-02-17T00:49:17;10.00;98.30
2763;DHT22;1389;51.490;7.338;2023-02-17T00:51:44;10.10;98.30
2763;DHT22;1389;51.490;7.338;2023-02-17T00:54:10;10.10;98.40
2763;DHT22;1389;51.490;7.338;2023-02-17T00:56:37;10.10;98.20
2763;DHT22;1389;51.490;7.338;2023-02-17T00:59:03;10.20;98.40
2763;DHT22;1389;51.490;7.338;2023-02-17T01:01:30;10.20;98.30
2763;DHT22;1389;51.490;7.338;2023-02-17T01:03:56;10.20;98.30
2763;DHT22;1389;51.490;7.338;2023-02-17T01:06:25;10.30;98.40
2763;DHT22;1389;51.490;7.338;2023-02-17T01:08:51;10.20;98.40
2763;DHT22;1389;51.490;7.338;2023-02-17T01:11:23;10.30;98.40
2763;DHT22;1389;51.490;7.338;2023-02-17T01:13:51;10.30;98.60
2763;DHT22;1389;51.490;7.338;2023-02-17T01:16:20;10.30;98.50
2763;DHT22;1389;51.490;7.338;2023-02-17T01:18:47;10.40;98.30
2763;DHT22;1389;51.490;7.338;2023-02-17T01:21:22;10.40;98.20
2763;DHT22;1389;51.490;7.338;2023-02-17T01:23:53;10.40;98.00
2763;DHT22;1389;51.490;7.338;2023-02-17T01:26:22;10.40;98.00
2763;DHT22;1389;51.490;7.338;2023-02-17T01:28:49;10.40;97.90
2763;DHT22;1389;51.490;7.338;2023-02-17T01:31:16;10.40;97.70
2763;DHT22;1389;51.490;7.338;2023-02-17T01:33:42;10.40;97.70
2763;DHT22;1389;51.490;7.338;2023-02-17T01:36:11;10.40;97.70
2763;DHT22;1389;51.490;7.338;2023-02-17T01:38:37;10.40;98.00
2763;DHT22;1389;51.490;7.338;2023-02-17T01:41:05;10.40;98.00
2763;DHT22;1389;51.490;7.338;2023-02-17T01:43:31;10.40;98.00
2763;DHT22;1389;51.490;7.338;2023-02-17T01:46:00;10.40;98.10
2763;DHT22;1389;51.490;7.338;2023-02-17T01:53:34;10.40;98.20
2763;DHT22;1389;51.490;7.338;2023-02-17T01:56:02;10.40;98.20
2763;DHT22;1389;51.490;7.338;2023-02-17T01:58:30;10.40;98.20
2763;DHT22;1389;51.490;7.338;2023-02-17T02:00:58;10.40;98.30
2763;DHT22;1389;51.490;7.338;2023-02-17T02:03:26;10.40;98.20
2763;DHT22;1389;51.490;7.338;2023-02-17T02:05:54;10.40;98.30
2763;DHT22;1389;51.490;7.338;2023-02-17T02:08:20;10.40;98.40
2763;DHT22;1389;51.490;7.338;2023-02-17T02:10:46;10.40;98.40
2763;DHT22;1389;51.490;7.338;2023-02-17T02:13:12;10.40;98.40
2763;DHT22;1389;51.490;7.338;2023-02-17T02:16:17;10.40;98.60
2763;DHT22;1389;51.490;7.338;2023-02-17T02:18:53;10.40;98.70
2763;DHT22;1389;51.490;7.338;2023-02-17T02:32:24;10.50;98.50
2763;DHT22;1389;51.490;7.338;2023-02-17T02:40:58;10.40;99.00
2763;DHT22;1389;51.490;7.338;2023-02-17T02:43:25;10.40;99.20
2763;DHT22;1389;51.490;7.338;2023-02-17T02:45:51;10.50;99.00
2763;DHT22;1389;51.490;7.338;2023-02-17T02:48:17;10.50;98.90
2763;DHT22;1389;51.490;7.338;2023-02-17T02:51:09;10.50;98.80
2763;DHT22;1389;51.490;7.338;2023-02-17T03:00:02;10.60;98.30
2763;DHT22;1389;51.490;7.338;2023-02-17T03:07:55;10.70;97.60
2763;DHT22;1389;51.490;7.338;2023-02-17T03:10:23;10.70;97.40
2763;DHT22;1389;51.490;7.338;2023-02-17T03:12:49;10.70;97.30
2763;DHT22;1389;51.490;7.338;2023-02-17T03:15:21;10.70;97.10
2763;DHT22;1389;51.490;7.338;2023-02-17T03:17:48;10.70;97.10
2763;DHT22;1389;51.490;7.338;2023-02-17T03:20:14;10.80;96.90
2763;DHT22;1389;51.490;7.338;2023-02-17T03:22:44;10.80;96.70
2763;DHT22;1389;51.490;7.338;2023-02-17T03:25:11;10.80;96.70
2763;DHT22;1389;51.490;7.338;2023-02-17T03:27:37;10.80;96.40
2763;DHT22;1389;51.490;7.338;2023-02-17T03:30:04;10.80;96.40
2763;DHT22;1389;51.490;7.338;2023-02-17T03:32:30;10.90;96.30
2763;DHT22;1389;51.490;7.338;2023-02-17T03:34:57;10.90;96.20
2763;DHT22;1389;51.490;7.338;2023-02-17T03:37:23;10.90;96.00
2763;DHT22;1389;51.490;7.338;2023-02-17T03:39:49;10.90;96.00
2763;DHT22;1389;51.490;7.338;2023-02-17T03:42:15;10.90;95.90
2763;DHT22;1389;51.490;7.338;2023-02-17T03:44:41;10.90;95.90
2763;DHT22;1389;51.490;7.338;2023-02-17T03:47:07;10.80;95.90
2763;DHT22;1389;51.490;7.338;2023-02-17T03:49:34;10.90;96.10
2763;DHT22;1389;51.490;7.338;2023-02-17T03:52:00;10.90;95.90
2763;DHT22;1389;51.490;7.338;2023-02-17T03:54:26;10.90;95.90
2763;DHT22;1389;51.490;7.338;2023-02-17T03:56:52;11.00;95.50
2763;DHT22;1389;51.490;7.338;2023-02-17T03:59:18;11.00;95.30
2763;DHT22;1389;51.490;7.338;2023-02-17T04:01:44;11.00;95.40
2763;DHT22;1389;51.490;7.338;2023-02-17T04:04:10;11.00;95.40
2763;DHT22;1389;51.490;7.338;2023-02-17T04:06:36;11.00;95.40
2763;DHT22;1389;51.490;7.338;2023-02-17T04:09:03;11.00;95.30
2763;DHT22;1389;51.490;7.338;2023-02-17T04:11:29;11.00;95.40
2763;DHT22;1389;51.490;7.338;2023-02-17T04:13:55;11.00;95.40
2763;DHT22;1389;51.490;7.338;2023-02-17T04:16:21;11.00;95.20
2763;DHT22;1389;51.490;7.338;2023-02-17T04:18:47;11.00;94.80
2763;DHT22;1389;51.490;7.338;2023-02-17T04:21:13;11.00;95.10
2763;DHT22;1389;51.490;7.338;2023-02-17T04:23:39;11.00;94.90
2763;DHT22;1389;51.490;7.338;2023-02-17T04:26:06;11.00;94.60
2763;DHT22;1389;51.490;7.338;2023-02-17T04:28:33;11.10;94.50
2763;DHT22;1389;51.490;7.338;2023-02-17T04:31:00;11.10;94.50
2763;DHT22;1389;51.490;7.338;2023-02-17T04:33:26;11.10;94.60
2763;DHT22;1389;51.490;7.338;2023-02-17T04:35:52;11.10;94.40
2763;DHT22;1389;51.490;7.338;2023-02-17T04:38:26;11.10;94.60
2763;DHT22;1389;51.490;7.338;2023-02-17T04:40:56;11.10;94.70
2763;DHT22;1389;51.490;7.338;2023-02-17T04:43:23;11.10;94.30
2763;DHT22;1389;51.490;7.338;2023-02-17T04:45:50;11.10;94.40
2763;DHT22;1389;51.490;7.338;2023-02-17T04:48:16;11.10;94.50
2763;DHT22;1389;51.490;7.338;2023-02-17T04:50:42;11.10;94.30
2763;DHT22;1389;51.490;7.338;2023-02-17T04:53:09;11.10;94.30
2763;DHT22;1389;51.490;7.338;2023-02-17T04:55:35;11.10;94.30
2763;DHT22;1389;51.490;7.338;2023-02-17T04:58:01;11.20;93.80
2763;DHT22;1389;51.490;7.338;2023-02-17T05:00:27;11.20;93.40
2763;DHT22;1389;51.490;7.338;2023-02-17T05:02:53;11.10;93.40
2763;DHT22;1389;51.490;7.338;2023-02-17T05:05:19;11.20;93.30
2763;DHT22;1389;51.490;7.338;2023-02-17T05:07:46;11.10;93.40
2763;DHT22;1389;51.490;7.338;2023-02-17T05:10:13;11.20;93.40
2763;DHT22;1389;51.490;7.338;2023-02-17T05:12:39;11.20;93.10
2763;DHT22;1389;51.490;7.338;2023-02-17T05:15:06;11.20;93.20
2763;DHT22;1389;51.490;7.338;2023-02-17T05:17:33;11.30;92.90
2763;DHT22;1389;51.490;7.338;2023-02-17T05:19:59;11.30;92.90
2763;DHT22;1389;51.490;7.338;2023-02-17T05:22:26;11.30;92.70
2763;DHT22;1389;51.490;7.338;2023-02-17T05:24:52;11.20;92.70
2763;DHT22;1389;51.490;7.338;2023-02-17T05:27:18;11.30;92.70
2763;DHT22;1389;51.490;7.338;2023-02-17T05:29:45;11.30;92.50
2763;DHT22;1389;51.490;7.338;2023-02-17T05:32:11;11.30;92.40
2763;DHT22;1389;51.490;7.338;2023-02-17T05:34:38;11.30;92.40
2763;DHT22;1389;51.490;7.338;2023-02-17T05:37:04;11.30;92.20
2763;DHT22;1389;51.490;7.338;2023-02-17T05:39:30;11.30;92.10
2763;DHT22;1389;51.490;7.338;2023-02-17T05:41:56;11.30;92.30
2763;DHT22;1389;51.490;7.338;2023-02-17T05:44:22;11.20;92.60
2763;DHT22;1389;51.490;7.338;2023-02-17T05:46:48;11.30;92.40
2763;DHT22;1389;51.490;7.338;2023-02-17T05:49:14;11.30;92.50
2763;DHT22;1389;51.490;7.338;2023-02-17T05:51:40;11.40;92.30
2763;DHT22;1389;51.490;7.338;2023-02-17T05:54:06;11.30;92.40
2763;DHT22;1389;51.490;7.338;2023-02-17T05:56:33;11.30;92.70
2763;DHT22;1389;51.490;7.338;2023-02-17T05:58:59;11.30;92.60
2763;DHT22;1389;51.490;7.338;2023-02-17T06:01:26;11.40;92.60
2763;DHT22;1389;51.490;7.338;2023-02-17T06:03:52;11.30;92.70
2763;DHT22;1389;51.490;7.338;2023-02-17T06:06:18;11.40;92.70
2763;DHT22;1389;51.490;7.338;2023-02-17T06:08:44;11.40;92.70
2763;DHT22;1389;51.490;7.338;2023-02-17T06:11:11;11.30;92.70
2763;DHT22;1389;51.490;7.338;2023-02-17T06:13:37;11.30;92.70
2763;DHT22;1389;51.490;7.338;2023-02-17T06:16:03;11.40;92.50
2763;DHT22;1389;51.490;7.338;2023-02-17T06:18:29;11.40;92.50
2763;DHT22;1389;51.490;7.338;2023-02-17T06:20:56;11.40;92.50
2763;DHT22;1389;51.490;7.338;2023-02-17T06:23:23;11.40;92.40
2763;DHT22;1389;51.490;7.338;2023-02-17T06:25:49;11.40;92.30
2763;DHT22;1389;51.490;7.338;2023-02-17T06:28:16;11.40;92.40
2763;DHT22;1389;51.490;7.338;2023-02-17T06:30:42;11.40;92.60
2763;DHT22;1389;51.490;7.338;2023-02-17T06:33:08;11.40;92.50
2763;DHT22;1389;51.490;7.338;2023-02-17T06:35:34;11.40;92.60
2763;DHT22;1389;51.490;7.338;2023-02-17T06:38:00;11.40;92.60
2763;DHT22;1389;51.490;7.338;2023-02-17T06:40:26;11.40;92.70
2763;DHT22;1389;51.490;7.338;2023-02-17T06:42:52;11.40;92.70
2763;DHT22;1389;51.490;7.338;2023-02-17T06:45:18;11.40;92.90
2763;DHT22;1389;51.490;7.338;2023-02-17T06:47:44;11.40;93.00
2763;DHT22;1389;51.490;7.338;2023-02-17T06:50:11;11.40;93.20
2763;DHT22;1389;51.490;7.338;2023-02-17T06:52:37;11.40;92.90
2763;DHT22;1389;51.490;7.338;2023-02-17T06:55:03;11.40;92.90
2763;DHT22;1389;51.490;7.338;2023-02-17T06:57:29;11.40;93.00
2763;DHT22;1389;51.490;7.338;2023-02-17T06:59:56;11.40;93.00
2763;DHT22;1389;51.490;7.338;2023-02-17T07:02:22;11.50;93.20
2763;DHT22;1389;51.490;7.338;2023-02-17T07:04:48;11.50;93.20
2763;DHT22;1389;51.490;7.338;2023-02-17T07:07:14;11.40;93.70
2763;DHT22;1389;51.490;7.338;2023-02-17T07:09:40;11.40;93.90
2763;DHT22;1389;51.490;7.338;2023-02-17T07:12:06;11.40;94.20
2763;DHT22;1389;51.490;7.338;2023-02-17T07:14:33;11.30;94.60
2763;DHT22;1389;51.490;7.338;2023-02-17T07:17:00;11.30;95.00
2763;DHT22;1389;51.490;7.338;2023-02-17T07:19:26;11.30;95.50
2763;DHT22;1389;51.490;7.338;2023-02-17T07:21:52;11.30;95.60
2763;DHT22;1389;51.490;7.338;2023-02-17T07:24:18;11.20;95.60
2763;DHT22;1389;51.490;7.338;2023-02-17T07:26:44;11.20;95.90
2763;DHT22;1389;51.490;7.338;2023-02-17T07:29:10;11.20;96.10
2763;DHT22;1389;51.490;7.338;2023-02-17T07:31:37;11.20;96.20
2763;DHT22;1389;51.490;7.338;2023-02-17T07:34:03;11.20;96.40
2763;DHT22;1389;51.490;7.338;2023-02-17T07:36:30;11.20;96.40
2763;DHT22;1389;51.490;7.338;2023-02-17T07:38:56;11.20;96.50
2763;DHT22;1389;51.490;7.338;2023-02-17T07:41:23;11.20;96.60
2763;DHT22;1389;51.490;7.338;2023-02-17T07:43:53;11.20;96.90
2763;DHT22;1389;51.490;7.338;2023-02-17T07:46:20;11.20;96.80
2763;DHT22;1389;51.490;7.338;2023-02-17T07:48:46;11.20;96.90
2763;DHT22;1389;51.490;7.338;2023-02-17T07:51:15;11.20;96.80
2763;DHT22;1389;51.490;7.338;2023-02-17T07:53:42;11.30;96.80
2763;DHT22;1389;51.490;7.338;2023-02-17T07:56:10;11.30;96.90
2763;DHT22;1389;51.490;7.338;2023-02-17T07:58:40;11.30;96.90
2763;DHT22;1389;51.490;7.338;2023-02-17T08:01:15;11.30;97.00
2763;DHT22;1389;51.490;7.338;2023-02-17T08:03:42;11.30;96.90
2763;DHT22;1389;51.490;7.338;2023-02-17T08:06:10;11.30;96.90
2763;DHT22;1389;51.490;7.338;2023-02-17T08:08:36;11.40;96.70
2763;DHT22;1389;51.490;7.338;2023-02-17T08:11:21;11.40;96.50
2763;DHT22;1389;51.490;7.338;2023-02-17T08:14:06;11.40;96.30
2763;DHT22;1389;51.490;7.338;2023-02-17T08:16:32;11.40;96.20
2763;DHT22;1389;51.490;7.338;2023-02-17T08:18:58;11.50;95.90
2763;DHT22;1389;51.490;7.338;2023-02-17T08:21:25;11.50;95.80
2763;DHT22;1389;51.490;7.338;2023-02-17T08:23:52;11.60;95.50
2763;DHT22;1389;51.490;7.338;2023-02-17T08:26:19;11.50;95.40
2763;DHT22;1389;51.490;7.338;2023-02-17T08:28:45;11.60;95.30
2763;DHT22;1389;51.490;7.338;2023-02-17T08:31:38;11.60;95.20
2763;DHT22;1389;51.490;7.338;2023-02-17T08:34:06;11.60;95.20
2763;DHT22;1389;51.490;7.338;2023-02-17T08:36:33;11.60;95.10
2763;DHT22;1389;51.490;7.338;2023-02-17T08:39:04;11.60;95.00
2763;DHT22;1389;51.490;7.338;2023-02-17T08:41:32;11.70;95.10
2763;DHT22;1389;51.490;7.338;2023-02-17T08:44:01;11.70;94.70
2763;DHT22;1389;51.490;7.338;2023-02-17T08:46:28;11.70;94.80
2763;DHT22;1389;51.490;7.338;2023-02-17T08:48:55;11.70;94.80
2763;DHT22;1389;51.490;7.338;2023-02-17T08:51:23;11.70;94.80
2763;DHT22;1389;51.490;7.338;2023-02-17T08:53:55;11.70;94.70
2763;DHT22;1389;51.490;7.338;2023-02-17T08:56:22;11.80;94.60
2763;DHT22;1389;51.490;7.338;2023-02-17T08:58:49;11.80;94.40
2763;DHT22;1389;51.490;7.338;2023-02-17T09:01:15;11.80;94.30
2763;DHT22;1389;51.490;7.338;2023-02-17T09:03:44;11.80;94.20
2763;DHT22;1389;51.490;7.338;2023-02-17T09:06:10;11.80;93.90
2763;DHT22;1389;51.490;7.338;2023-02-17T09:08:38;11.90;94.00
2763;DHT22;1389;51.490;7.338;2023-02-17T09:11:06;11.90;93.90
2763;DHT22;1389;51.490;7.338;2023-02-17T09:13:33;11.90;93.80
2763;DHT22;1389;51.490;7.338;2023-02-17T09:15:59;12.00;93.30
2763;DHT22;1389;51.490;7.338;2023-02-17T09:18:25;12.00;93.10
2763;DHT22;1389;51.490;7.338;2023-02-17T09:20:51;12.10;93.10
2763;DHT22;1389;51.490;7.338;2023-02-17T09:23:17;12.10;93.00
2763;DHT22;1389;51.490;7.338;2023-02-17T09:25:44;12.10;93.20
2763;DHT22;1389;51.490;7.338;2023-02-17T09:28:11;12.10;92.90
2763;DHT22;1389;51.490;7.338;2023-02-17T09:30:39;12.20;92.40
2763;DHT22;1389;51.490;7.338;2023-02-17T09:33:05;12.20;92.30
2763;DHT22;1389;51.490;7.338;2023-02-17T09:35:32;12.20;92.30
2763;DHT22;1389;51.490;7.338;2023-02-17T09:37:58;12.20;92.30
2763;DHT22;1389;51.490;7.338;2023-02-17T09:40:42;12.30;92.10
2763;DHT22;1389;51.490;7.338;2023-02-17T09:43:21;12.30;91.90
2763;DHT22;1389;51.490;7.338;2023-02-17T09:45:53;12.40;91.70
2763;DHT22;1389;51.490;7.338;2023-02-17T09:48:26;12.40;91.50
2763;DHT22;1389;51.490;7.338;2023-02-17T09:51:05;12.40;91.70
2763;DHT22;1389;51.490;7.338;2023-02-17T09:53:52;12.40;91.70
2763;DHT22;1389;51.490;7.338;2023-02-17T09:56:24;12.50;91.30
2763;DHT22;1389;51.490;7.338;2023-02-17T09:58:59;12.60;91.20
2763;DHT22;1389;51.490;7.338;2023-02-17T10:01:31;12.60;90.90
2763;DHT22;1389;51.490;7.338;2023-02-17T10:06:35;12.70;90.70
2763;DHT22;1389;51.490;7.338;2023-02-17T10:11:44;12.80;90.30
2763;DHT22;1389;51.490;7.338;2023-02-17T10:14:18;12.80;90.30
2763;DHT22;1389;51.490;7.338;2023-02-17T10:17:16;12.90;90.30
2763;DHT22;1389;51.490;7.338;2023-02-17T10:19:53;12.90;90.40
2763;DHT22;1389;51.490;7.338;2023-02-17T10:22:23;12.90;90.40
2763;DHT22;1389;51.490;7.338;2023-02-17T10:24:49;13.00;90.40
2763;DHT22;1389;51.490;7.338;2023-02-17T10:30:39;13.00;90.00
2763;DHT22;1389;51.490;7.338;2023-02-17T10:33:36;13.00;89.90
2763;DHT22;1389;51.490;7.338;2023-02-17T10:38:50;13.00;89.90
2763;DHT22;1389;51.490;7.338;2023-02-17T10:41:21;13.10;89.90
2763;DHT22;1389;51.490;7.338;2023-02-17T10:43:49;13.10;89.80
2763;DHT22;1389;51.490;7.338;2023-02-17T10:46:16;13.10;89.90
2763;DHT22;1389;51.490;7.338;2023-02-17T10:48:49;13.10;89.70
2763;DHT22;1389;51.490;7.338;2023-02-17T10:51:18;13.20;89.50
2763;DHT22;1389;51.490;7.338;2023-02-17T10:53:49;13.10;89.20
2763;DHT22;1389;51.490;7.338;2023-02-17T10:56:22;13.10;89.50
2763;DHT22;1389;51.490;7.338;2023-02-17T11:01:41;13.20;89.40
2763;DHT22;1389;51.490;7.338;2023-02-17T11:04:09;13.20;89.30
2763;DHT22;1389;51.490;7.338;2023-02-17T11:06:44;13.20;89.50
2763;DHT22;1389;51.490;7.338;2023-02-17T11:09:25;13.30;89.20
2763;DHT22;1389;51.490;7.338;2023-02-17T11:12:03;13.30;89.10
2763;DHT22;1389;51.490;7.338;2023-02-17T11:14:32;13.30;89.00
2763;DHT22;1389;51.490;7.338;2023-02-17T11:17:02;13.30;89.10
2763;DHT22;1389;51.490;7.338;2023-02-17T11:19:32;13.30;88.90
2763;DHT22;1389;51.490;7.338;2023-02-17T11:22:01;13.30;89.00
2763;DHT22;1389;51.490;7.338;2023-02-17T11:24:29;13.30;88.90
2763;DHT22;1389;51.490;7.338;2023-02-17T11:27:00;13.30;89.00
2763;DHT22;1389;51.490;7.338;2023-02-17T11:29:26;13.40;88.70
2763;DHT22;1389;51.490;7.338;2023-02-17T11:34:28;13.50;88.10
2763;DHT22;1389;51.490;7.338;2023-02-17T11:37:05;13.50;88.30
2763;DHT22;1389;51.490;7.338;2023-02-17T11:39:42;13.60;87.60
2763;DHT22;1389;51.490;7.338;2023-02-17T11:42:16;13.70;87.10
2763;DHT22;1389;51.490;7.338;2023-02-17T11:44:45;13.70;87.10
2763;DHT22;1389;51.490;7.338;2023-02-17T11:47:14;13.80;87.00
2763;DHT22;1389;51.490;7.338;2023-02-17T11:52:50;13.80;86.20
2763;DHT22;1389;51.490;7.338;2023-02-17T11:55:38;13.80;86.40
2763;DHT22;1389;51.490;7.338;2023-02-17T11:58:29;13.80;85.50
2763;DHT22;1389;51.490;7.338;2023-02-17T12:01:25;13.80;85.60
2763;DHT22;1389;51.490;7.338;2023-02-17T12:15:02;13.90;84.70
2763;DHT22;1389;51.490;7.338;2023-02-17T12:22:54;13.90;85.10
2763;DHT22;1389;51.490;7.338;2023-02-17T12:25:32;13.90;84.70
2763;DHT22;1389;51.490;7.338;2023-02-17T12:34:23;14.00;84.90
2763;DHT22;1389;51.490;7.338;2023-02-17T12:36:50;14.00;85.00
2763;DHT22;1389;51.490;7.338;2023-02-17T12:39:40;13.90;85.10
2763;DHT22;1389;51.490;7.338;2023-02-17T12:42:15;13.90;85.10
2763;DHT22;1389;51.490;7.338;2023-02-17T12:44:54;14.00;85.10
2763;DHT22;1389;51.490;7.338;2023-02-17T12:47:30;14.00;85.50
2763;DHT22;1389;51.490;7.338;2023-02-17T12:52:43;14.10;85.30
2763;DHT22;1389;51.490;7.338;2023-02-17T12:55:19;14.00;85.50
2763;DHT22;1389;51.490;7.338;2023-02-17T12:57:52;14.00;85.40
2763;DHT22;1389;51.490;7.338;2023-02-17T13:03:10;14.10;85.60
2763;DHT22;1389;51.490;7.338;2023-02-17T13:05:45;14.00;85.70
2763;DHT22;1389;51.490;7.338;2023-02-17T13:08:43;14.00;85.50
2763;DHT22;1389;51.490;7.338;2023-02-17T13:11:32;14.00;85.80
2763;DHT22;1389;51.490;7.338;2023-02-17T13:14:19;14.10;85.50
2763;DHT22;1389;51.490;7.338;2023-02-17T13:16:48;14.10;85.80
2763;DHT22;1389;51.490;7.338;2023-02-17T13:19:14;14.10;85.80
2763;DHT22;1389;51.490;7.338;2023-02-17T13:21:55;14.10;85.80
2763;DHT22;1389;51.490;7.338;2023-02-17T13:24:38;14.10;86.00
2763;DHT22;1389;51.490;7.338;2023-02-17T13:27:29;14.10;85.70
2763;DHT22;1389;51.490;7.338;2023-02-17T13:32:30;14.20;85.90
2763;DHT22;1389;51.490;7.338;2023-02-17T13:37:49;14.20;85.50
2763;DHT22;1389;51.490;7.338;2023-02-17T13:47:57;14.30;85.50
2763;DHT22;1389;51.490;7.338;2023-02-17T13:50:30;14.30;86.10
2763;DHT22;1389;51.490;7.338;2023-02-17T13:52:57;14.30;85.70
2763;DHT22;1389;51.490;7.338;2023-02-17T13:55:24;14.30;85.70
2763;DHT22;1389;51.490;7.338;2023-02-17T13:57:53;14.30;85.60
2763;DHT22;1389;51.490;7.338;2023-02-17T14:00:22;14.30;85.60
2763;DHT22;1389;51.490;7.338;2023-02-17T14:03:10;14.30;85.70
2763;DHT22;1389;51.490;7.338;2023-02-17T14:05:43;14.30;85.70
2763;DHT22;1389;51.490;7.338;2023-02-17T14:08:35;14.30;85.50
2763;DHT22;1389;51.490;7.338;2023-02-17T14:11:15;14.30;85.70
2763;DHT22;1389;51.490;7.338;2023-02-17T14:13:45;14.30;85.70
2763;DHT22;1389;51.490;7.338;2023-02-17T14:16:41;14.30;85.40
2763;DHT22;1389;51.490;7.338;2023-02-17T14:21:37;14.30;85.40
2763;DHT22;1389;51.490;7.338;2023-02-17T14:24:04;14.30;85.50
2763;DHT22;1389;51.490;7.338;2023-02-17T14:26:41;14.30;85.40
2763;DHT22;1389;51.490;7.338;2023-02-17T14:29:10;14.30;85.30
2763;DHT22;1389;51.490;7.338;2023-02-17T14:31:42;14.20;85.50
2763;DHT22;1389;51.490;7.338;2023-02-17T14:34:27;14.20;85.50
2763;DHT22;1389;51.490;7.338;2023-02-17T14:36:54;14.30;85.70
2763;DHT22;1389;51.490;7.338;2023-02-17T14:39:31;14.20;86.10
2763;DHT22;1389;51.490;7.338;2023-02-17T14:41:57;14.20;86.60
2763;DHT22;1389;51.490;7.338;2023-02-17T14:44:23;14.10;86.70
2763;DHT22;1389;51.490;7.338;2023-02-17T14:46:49;14.00;87.10
2763;DHT22;1389;51.490;7.338;2023-02-17T14:49:15;14.00;87.50
2763;DHT22;1389;51.490;7.338;2023-02-17T14:51:41;13.90;87.90
2763;DHT22;1389;51.490;7.338;2023-02-17T14:54:15;13.80;88.40
2763;DHT22;1389;51.490;7.338;2023-02-17T14:57:06;13.70;88.90
2763;DHT22;1389;51.490;7.338;2023-02-17T14:59:33;13.70;89.60
2763;DHT22;1389;51.490;7.338;2023-02-17T15:01:59;13.60;90.10
2763;DHT22;1389;51.490;7.338;2023-02-17T15:04:25;13.50;90.70
2763;DHT22;1389;51.490;7.338;2023-02-17T15:06:52;13.50;91.20
2763;DHT22;1389;51.490;7.338;2023-02-17T15:09:39;13.40;91.30
2763;DHT22;1389;51.490;7.338;2023-02-17T15:12:15;13.40;91.60
2763;DHT22;1389;51.490;7.338;2023-02-17T15:14:42;13.30;91.90
2763;DHT22;1389;51.490;7.338;2023-02-17T15:17:08;13.30;92.20
2763;DHT22;1389;51.490;7.338;2023-02-17T15:19:34;13.20;92.50
2763;DHT22;1389;51.490;7.338;2023-02-17T15:22:01;13.20;92.50
2763;DHT22;1389;51.490;7.338;2023-02-17T15:24:31;13.10;92.60
2763;DHT22;1389;51.490;7.338;2023-02-17T15:26:58;13.00;93.00
2763;DHT22;1389;51.490;7.338;2023-02-17T15:29:25;13.00;93.20
2763;DHT22;1389;51.490;7.338;2023-02-17T15:31:55;12.90;93.30
2763;DHT22;1389;51.490;7.338;2023-02-17T15:34:25;12.90;93.20
2763;DHT22;1389;51.490;7.338;2023-02-17T15:36:53;12.90;92.70
2763;DHT22;1389;51.490;7.338;2023-02-17T15:39:19;12.90;92.50
2763;DHT22;1389;51.490;7.338;2023-02-17T15:41:48;12.90;92.60
2763;DHT22;1389;51.490;7.338;2023-02-17T15:44:15;12.90;92.30
2763;DHT22;1389;51.490;7.338;2023-02-17T15:46:42;12.90;92.50
2763;DHT22;1389;51.490;7.338;2023-02-17T15:49:11;12.90;92.40
2763;DHT22;1389;51.490;7.338;2023-02-17T15:51:38;12.80;92.40
2763;DHT22;1389;51.490;7.338;2023-02-17T15:54:04;12.80;91.90
2763;DHT22;1389;51.490;7.338;2023-02-17T15:56:39;12.90;91.80
2763;DHT22;1389;51.490;7.338;2023-02-17T15:59:11;12.80;92.10
2763;DHT22;1389;51.490;7.338;2023-02-17T16:01:38;12.80;91.50
2763;DHT22;1389;51.490;7.338;2023-02-17T16:04:08;12.80;91.20
2763;DHT22;1389;51.490;7.338;2023-02-17T16:06:34;12.80;91.10
2763;DHT22;1389;51.490;7.338;2023-02-17T16:09:00;12.80;91.10
2763;DHT22;1389;51.490;7.338;2023-02-17T16:11:27;12.80;90.90
2763;DHT22;1389;51.490;7.338;2023-02-17T16:13:53;12.80;91.10
2763;DHT22;1389;51.490;7.338;2023-02-17T16:16:25;12.90;90.70
2763;DHT22;1389;51.490;7.338;2023-02-17T16:18:54;12.90;90.80
2763;DHT22;1389;51.490;7.338;2023-02-17T16:21:20;12.90;91.00
2763;DHT22;1389;51.490;7.338;2023-02-17T16:23:46;12.90;90.90
2763;DHT22;1389;51.490;7.338;2023-02-17T16:26:33;12.90;90.90
2763;DHT22;1389;51.490;7.338;2023-02-17T16:29:01;12.90;90.60
2763;DHT22;1389;51.490;7.338;2023-02-17T16:31:28;12.80;90.60
2763;DHT22;1389;51.490;7.338;2023-02-17T16:33:57;12.70;90.90
2763;DHT22;1389;51.490;7.338;2023-02-17T16:36:27;12.80;91.10
2763;DHT22;1389;51.490;7.338;2023-02-17T16:38:54;12.80;90.90
2763;DHT22;1389;51.490;7.338;2023-02-17T16:41:20;12.80;90.70
2763;DHT22;1389;51.490;7.338;2023-02-17T16:43:46;12.80;90.70
2763;DHT22;1389;51.490;7.338;2023-02-17T16:46:26;12.80;90.40
2763;DHT22;1389;51.490;7.338;2023-02-17T16:48:55;12.80;90.50
2763;DHT22;1389;51.490;7.338;2023-02-17T16:51:21;12.80;90.70
2763;DHT22;1389;51.490;7.338;2023-02-17T16:53:47;12.80;90.30
2763;DHT22;1389;51.490;7.338;2023-02-17T16:56:17;12.80;90.30
2763;DHT22;1389;51.490;7.338;2023-02-17T16:58:44;12.80;90.10
2763;DHT22;1389;51.490;7.338;2023-02-17T17:01:11;12.80;89.80
2763;DHT22;1389;51.490;7.338;2023-02-17T17:03:39;12.80;89.80
2763;DHT22;1389;51.490;7.338;2023-02-17T17:06:25;12.90;89.70
2763;DHT22;1389;51.490;7.338;2023-02-17T17:08:51;12.90;89.40
2763;DHT22;1389;51.490;7.338;2023-02-17T17:11:20;12.90;89.30
2763;DHT22;1389;51.490;7.338;2023-02-17T17:13:47;12.80;89.40
2763;DHT22;1389;51.490;7.338;2023-02-17T17:16:17;12.80;89.30
2763;DHT22;1389;51.490;7.338;2023-02-17T17:18:44;12.80;89.40
2763;DHT22;1389;51.490;7.338;2023-02-17T17:21:12;12.90;89.00
2763;DHT22;1389;51.490;7.338;2023-02-17T17:23:38;12.90;88.80
2763;DHT22;1389;51.490;7.338;2023-02-17T17:26:26;12.80;88.80
2763;DHT22;1389;51.490;7.338;2023-02-17T17:28:54;12.80;89.10
2763;DHT22;1389;51.490;7.338;2023-02-17T17:31:21;12.80;88.90
2763;DHT22;1389;51.490;7.338;2023-02-17T17:33:48;12.80;88.90
2763;DHT22;1389;51.490;7.338;2023-02-17T17:38:47;12.80;89.00
2763;DHT22;1389;51.490;7.338;2023-02-17T17:41:13;12.80;88.80
2763;DHT22;1389;51.490;7.338;2023-02-17T17:43:40;12.80;88.60
2763;DHT22;1389;51.490;7.338;2023-02-17T17:46:15;12.80;88.70
2763;DHT22;1389;51.490;7.338;2023-02-17T17:48:43;12.90;88.30
2763;DHT22;1389;51.490;7.338;2023-02-17T17:51:11;12.90;88.40
2763;DHT22;1389;51.490;7.338;2023-02-17T17:53:37;12.80;88.40
2763;DHT22;1389;51.490;7.338;2023-02-17T17:56:04;12.80;88.80